Time;durP1;ratioP1;P1;durP2;ratioP2;P2;SDS_P1;SDS_P2;PMS_P1;PMS_P2;Temp;Humidity;BMP_temperature;BMP_pressure;BME280_temperature;BME280_humidity;BME280_pressure;Samples;Min_cycle;Max_cycle;Signal;HPM_P1;HPM_P2
2022/05/08 00:01:40;;;;;;;0.60;0.60;;;23.10;37.90;;;24.27;33.44;102624.19;5045125;28;20201;-49
2022/05/08 00:04:08;;;;;;;0.77;0.77;;;23.10;37.80;;;24.27;33.30;102623.41;5053768;28;20221;-49
2022/05/08 00:06:35;;;;;;;0.70;0.70;;;23.10;37.80;;;24.28;33.25;102622.34;5053343;28;20214;-49
2022/05/08 00:09:02;;;;;;;0.50;0.50;;;23.10;37.80;;;24.28;33.07;102630.41;5053163;28;20194;-52
2022/05/08 00:11:31;;;;;;;0.70;0.70;;;23.10;37.70;;;24.27;32.87;102631.47;5053855;28;20213;-52
2022/05/08 00:13:58;;;;;;;0.60;0.60;;;23.10;37.70;;;24.27;33.10;102628.78;5051332;28;20272;-52
2022/05/08 00:16:26;;;;;;;0.60;0.60;;;23.10;38.30;;;24.26;33.26;102627.94;5051723;28;20229;-52
2022/05/08 00:18:53;;;;;;;0.50;0.50;;;23.10;37.70;;;24.26;32.99;102633.34;5040427;28;20190;-51
2022/05/08 00:21:20;;;;;;;0.70;0.70;;;23.10;37.60;;;24.25;32.96;102625.50;5053829;28;20550;-49
2022/05/08 00:23:48;;;;;;;0.67;0.67;;;23.10;37.60;;;24.26;33.25;102625.25;5053633;28;20196;-52
2022/05/08 00:26:16;;;;;;;0.60;0.60;;;23.10;37.60;;;24.25;33.15;102623.59;5053484;28;20236;-51
2022/05/08 00:28:45;;;;;;;0.57;0.57;;;23.10;37.60;;;24.26;33.44;102632.50;5039037;28;20659;-52
2022/05/08 00:31:12;;;;;;;0.77;0.77;;;23.10;37.50;;;24.26;33.08;102627.94;5033539;28;20191;-52
2022/05/08 00:33:40;;;;;;;0.60;0.60;;;23.10;37.50;;;24.26;33.19;102621.75;5033677;28;20204;-52
2022/05/08 00:36:08;;;;;;;0.60;0.60;;;23.10;37.40;;;24.23;33.38;102629.22;5033493;28;20229;-50
2022/05/08 00:38:35;;;;;;;0.80;0.80;;;23.10;37.50;;;24.25;32.84;102625.50;5033578;28;20194;-50
2022/05/08 00:41:02;;;;;;;0.80;0.80;;;23.10;37.50;;;24.23;33.18;102629.22;5034522;28;20231;-49
2022/05/08 00:43:33;;;;;;;0.70;0.70;;;23.10;37.40;;;24.25;33.21;102625.50;5036169;28;20209;-50
2022/05/08 00:46:06;;;;;;;0.60;0.60;;;23.10;37.30;;;24.23;32.75;102626.53;5033270;28;20218;-49
2022/05/08 00:48:34;;;;;;;0.50;0.50;;;23.10;37.40;;;24.23;32.74;102623.00;5052089;28;20204;-47
2022/05/08 00:51:05;;;;;;;0.70;0.70;;;23.10;37.40;;;24.24;33.27;102630.03;5045623;28;20191;-50
2022/05/08 00:53:36;;;;;;;0.50;0.50;;;23.10;37.30;;;24.23;32.62;102634.59;5033735;28;20237;-50
2022/05/08 00:56:06;;;;;;;0.70;0.70;;;23.10;37.30;;;24.25;32.63;102638.94;5043473;28;20218;-51
2022/05/08 00:58:36;;;;;;;0.63;0.63;;;23.10;37.20;;;24.21;32.69;102631.31;5053492;28;20204;-51
2022/05/08 01:01:05;;;;;;;0.40;0.40;;;23.10;37.30;;;24.22;32.67;102635.63;5053337;28;20279;-50
2022/05/08 01:03:33;;;;;;;0.70;0.70;;;23.10;37.20;;;24.20;32.98;102640.41;5053275;28;20256;-52
2022/05/08 01:06:06;;;;;;;0.60;0.60;;;23.10;37.20;;;24.22;32.67;102637.53;5052941;28;20209;-52
2022/05/08 01:08:36;;;;;;;0.70;0.70;;;23.10;37.20;;;24.23;32.91;102642.66;5048114;28;20202;-52
2022/05/08 01:11:07;;;;;;;0.57;0.57;;;23.10;37.30;;;24.23;32.75;102639.97;5048967;28;20190;-50
2022/05/08 01:13:35;;;;;;;0.67;0.67;;;23.10;37.20;;;24.22;32.88;102638.31;5053241;28;20678;-49
2022/05/08 01:16:08;;;;;;;0.60;0.60;;;23.10;37.20;;;24.21;32.79;102642.06;5052698;28;20209;-52
2022/05/08 01:18:42;;;;;;;0.70;0.70;;;23.10;37.10;;;24.22;32.78;102641.00;5053197;28;20214;-51
2022/05/08 01:21:12;;;;;;;0.60;0.60;;;23.10;37.10;;;24.21;32.62;102642.06;5053141;28;20186;-51
2022/05/08 01:23:41;;;;;;;0.60;0.60;;;23.10;37.10;;;24.20;32.89;102643.09;5039290;28;20194;-52
2022/05/08 01:26:09;;;;;;;0.50;0.50;;;23.10;37.10;;;24.22;33.00;102643.69;5033732;28;20217;-52
2022/05/08 01:28:37;;;;;;;0.40;0.40;;;23.10;37.00;;;24.21;32.40;102636.69;5033069;28;20198;-51
2022/05/08 01:31:04;;;;;;;0.50;0.50;;;23.10;37.00;;;24.20;32.74;102643.09;5033111;28;20186;-51
2022/05/08 01:33:32;;;;;;;0.60;0.60;;;23.10;37.00;;;24.22;32.75;102645.59;5033056;28;20202;-51
2022/05/08 01:36:01;;;;;;;0.40;0.40;;;23.10;37.00;;;24.21;32.91;102646.63;5037886;28;20218;-51
2022/05/08 01:38:28;;;;;;;0.53;0.53;;;23.10;37.00;;;24.21;32.61;102646.63;5041114;28;20641;-51
2022/05/08 01:41:03;;;;;;;0.50;0.50;;;23.10;37.00;;;24.22;32.74;102648.28;5038519;28;20202;-51
2022/05/08 01:43:37;;;;;;;0.57;0.57;;;23.10;37.00;;;24.21;32.82;102647.47;5047638;28;20201;-52
2022/05/08 01:46:04;;;;;;;0.47;0.47;;;23.10;36.80;;;24.21;32.64;102641.25;5042248;28;20551;-49
2022/05/08 01:48:32;;;;;;;0.57;0.57;;;23.10;36.90;;;24.18;32.77;102642.50;5036802;28;20201;-51
2022/05/08 01:51:02;;;;;;;0.47;0.47;;;23.10;36.80;;;24.19;32.25;102636.09;5053876;28;20686;-49
2022/05/08 01:53:33;;;;;;;0.50;0.50;;;23.10;36.80;;;24.19;32.77;102641.47;5036277;28;20186;-51
2022/05/08 01:56:07;;;;;;;0.73;0.50;;;23.10;36.70;;;24.17;32.59;102646.25;5053492;28;20218;-51
2022/05/08 01:58:34;;;;;;;0.60;0.60;;;23.10;36.60;;;24.18;32.61;102641.66;5052119;28;20255;-51
2022/05/08 02:01:08;;;;;;;0.50;0.50;;;23.10;36.70;;;24.17;32.84;102646.25;5036174;28;20533;-50
2022/05/08 02:03:36;;;;;;;0.60;0.60;;;23.10;36.70;;;24.18;32.57;102647.88;5039297;28;20690;-50
2022/05/08 02:06:03;;;;;;;0.40;0.40;;;23.10;36.70;;;24.19;32.55;102643.31;5050417;28;20210;-51
2022/05/08 02:08:31;;;;;;;0.53;0.53;;;23.10;36.80;;;24.18;32.44;102641.66;5055564;28;20190;-51
2022/05/08 02:10:58;;;;;;;0.40;0.40;;;23.00;36.70;;;24.18;32.75;102642.50;5056069;28;20194;-51
2022/05/08 02:13:26;;;;;;;0.60;0.60;;;23.10;36.70;;;24.17;32.41;102646.25;5054367;28;20593;-51
2022/05/08 02:15:54;;;;;;;0.60;0.60;;;23.00;36.60;;;24.19;32.41;102646.84;5053737;28;20602;-50
2022/05/08 02:18:21;;;;;;;0.63;0.63;;;23.10;36.70;;;24.18;32.40;102641.66;5055181;28;20689;-50
2022/05/08 02:20:48;;;;;;;0.50;0.50;;;23.10;36.70;;;24.17;32.32;102635.47;5055177;28;20198;-52
2022/05/08 02:23:15;;;;;;;0.50;0.50;;;23.10;36.60;;;24.17;32.27;102640.88;5055808;28;20197;-52
2022/05/08 02:25:42;;;;;;;0.50;0.50;;;23.10;36.60;;;24.19;32.33;102643.31;5055090;28;20220;-51
2022/05/08 02:28:10;;;;;;;0.50;0.50;;;23.10;36.50;;;24.17;32.24;102637.34;5055497;28;20193;-50
2022/05/08 02:30:39;;;;;;;0.50;0.50;;;23.00;36.50;;;24.18;32.34;102642.50;5042134;28;20195;-50
2022/05/08 02:33:06;;;;;;;0.50;0.50;;;23.00;36.50;;;24.18;32.69;102639.81;5037144;28;20190;-51
2022/05/08 02:35:34;;;;;;;0.60;0.60;;;23.00;36.50;;;24.18;32.38;102647.88;5035471;28;20226;-52
2022/05/08 02:38:01;;;;;;;0.60;0.60;;;23.00;36.50;;;24.18;32.57;102649.75;5035528;28;20229;-50
2022/05/08 02:40:28;;;;;;;0.50;0.50;;;23.00;36.40;;;24.18;32.17;102641.66;5049495;28;20208;-50
2022/05/08 02:42:56;;;;;;;0.40;0.40;;;23.10;36.50;;;24.19;32.29;102649.53;5054902;28;20546;-52
2022/05/08 02:45:23;;;;;;;0.50;0.50;;;23.10;36.40;;;24.17;31.97;102648.94;5051962;28;20217;-51
2022/05/08 02:47:52;;;;;;;0.50;0.50;;;23.00;36.40;;;24.17;32.47;102646.25;5052988;28;20423;-51
2022/05/08 02:50:20;;;;;;;0.50;0.50;;;23.00;36.40;;;24.17;32.30;102646.25;5049234;28;20190;-50
2022/05/08 02:52:47;;;;;;;0.80;0.80;;;23.00;36.40;;;24.17;32.48;102646.25;5055214;28;20190;-50
2022/05/08 03:00:48;;;;;;;0.50;0.50;;;23.00;36.30;;;24.14;32.41;102643.97;5053578;28;20198;-50
2022/05/08 03:03:17;;;;;;;0.60;0.60;;;23.10;36.30;;;24.15;32.37;102634.84;5053453;28;20662;-50
2022/05/08 03:05:47;;;;;;;0.60;0.60;;;23.00;36.20;;;24.15;32.51;102642.94;5043987;28;20215;-50
2022/05/08 03:08:17;;;;;;;0.50;0.50;;;23.00;36.20;;;24.15;32.44;102642.94;5040929;28;20190;-51
2022/05/08 03:13:35;;;;;;;0.40;0.40;;;23.00;36.10;;;24.14;32.08;102641.28;5054827;28;20201;-49
2022/05/08 03:16:03;;;;;;;0.50;0.50;;;23.00;36.10;;;24.14;32.32;102633.22;5042911;28;20226;-50
2022/05/08 03:18:32;;;;;;;0.40;0.40;;;23.00;36.10;;;24.15;32.01;102637.53;5053999;28;20205;-50
2022/05/08 03:20:59;;;;;;;0.40;0.40;;;23.00;36.10;;;24.15;32.27;102639.44;5040740;28;20547;-51
2022/05/08 03:23:26;;;;;;;0.60;0.60;;;23.00;36.10;;;24.15;32.31;102637.53;5036704;28;20667;-52
2022/05/08 03:25:54;;;;;;;0.50;0.50;;;23.00;36.00;;;24.15;32.18;102637.53;5047325;28;20709;-50
2022/05/08 03:28:21;;;;;;;0.50;0.50;;;23.00;36.00;;;24.14;32.08;102641.28;5054271;28;20252;-50
2022/05/08 03:30:49;;;;;;;0.50;0.50;;;23.00;36.00;;;24.13;32.23;102638.81;5054418;28;20212;-50
2022/05/08 03:33:17;;;;;;;0.53;0.40;;;23.00;35.90;;;24.16;32.18;102644.59;5053027;28;20197;-51
2022/05/08 03:35:45;;;;;;;0.50;0.50;;;23.00;35.90;;;24.15;31.89;102642.13;5053828;28;20754;-52
2022/05/08 03:38:13;;;;;;;0.43;0.43;;;23.00;35.90;;;24.13;31.96;102639.63;5039657;28;20219;-51
2022/05/08 03:40:40;;;;;;;0.50;0.50;;;23.00;35.90;;;24.15;32.31;102644.81;5034408;28;20202;-51
2022/05/08 03:43:07;;;;;;;0.40;0.40;;;23.00;35.90;;;24.15;32.05;102651.00;5052973;28;20198;-49
2022/05/08 03:45:35;;;;;;;0.50;0.50;;;23.00;35.90;;;24.14;32.06;102641.28;5053609;28;20224;-49
2022/05/08 03:48:04;;;;;;;0.63;0.63;;;23.00;35.80;;;24.14;32.10;102641.28;5053344;28;20182;-50
2022/05/08 03:50:31;;;;;;;0.40;0.40;;;23.00;35.90;;;24.14;32.04;102645.84;5044616;28;20202;-50
2022/05/08 03:53:02;;;;;;;0.60;0.60;;;23.00;35.80;;;24.15;31.69;102642.94;5052215;28;20197;-50
2022/05/08 03:55:29;;;;;;;0.53;0.53;;;23.00;35.80;;;24.12;31.64;102643.38;5053696;28;20224;-49
2022/05/08 03:57:56;;;;;;;0.60;0.60;;;23.00;36.40;;;24.13;31.92;102650.41;5053187;28;20213;-49
2022/05/08 04:00:24;;;;;;;0.40;0.40;;;23.00;35.70;;;24.12;32.01;102648.75;5052806;28;20190;-50
2022/05/08 04:02:51;;;;;;;0.50;0.50;;;23.00;35.80;;;24.12;32.02;102648.75;5053729;28;20695;-49
2022/05/08 04:05:18;;;;;;;0.40;0.40;;;23.00;35.80;;;24.13;31.95;102647.72;5044449;28;20215;-50
2022/05/08 04:07:46;;;;;;;0.50;0.50;;;23.00;35.70;;;24.13;31.59;102647.72;5033985;28;20201;-49
2022/05/08 04:10:15;;;;;;;0.50;0.50;;;23.00;35.60;;;24.12;31.96;102651.47;5033187;28;20191;-49
2022/05/08 04:12:47;;;;;;;0.57;0.57;;;23.00;35.70;;;24.12;31.86;102654.16;5033754;28;20199;-49
2022/05/08 04:18:00;;;;;;;0.50;0.50;;;23.00;35.60;;;24.09;31.64;102654.56;5048199;28;20213;-50
2022/05/08 04:20:28;;;;;;;0.50;0.50;;;23.00;35.60;;;24.10;31.74;102656.19;5035464;28;20662;-49
2022/05/08 04:25:42;;;;;;;0.50;0.50;;;23.00;35.60;;;24.09;31.89;102662.66;5033162;28;20745;-49
2022/05/08 04:28:11;;;;;;;0.57;0.57;;;23.00;35.50;;;24.09;31.62;102665.34;5033672;28;20183;-49
2022/05/08 04:30:39;;;;;;;0.50;0.50;;;23.00;35.50;;;24.10;31.78;102666.97;5034523;28;20647;-49
2022/05/08 04:33:06;;;;;;;0.50;0.50;;;23.00;35.40;;;24.09;31.56;102665.34;5051617;28;20549;-49
2022/05/08 04:35:33;;;;;;;0.60;0.60;;;23.00;35.40;;;24.10;31.56;102671.56;5050571;28;20221;-49
2022/05/08 04:38:00;;;;;;;0.50;0.50;;;23.00;35.40;;;24.11;31.57;102674.00;5051038;28;20233;-49
2022/05/08 04:40:28;;;;;;;0.53;0.53;;;23.00;35.40;;;24.11;31.58;102679.41;5053287;28;20269;-49
2022/05/08 04:42:57;;;;;;;0.60;0.60;;;23.00;35.40;;;24.10;31.62;102677.75;5053282;28;20232;-49
2022/05/08 04:45:24;;;;;;;0.40;0.40;;;23.00;35.30;;;24.10;31.43;102677.75;5052088;28;20681;-49
2022/05/08 04:47:54;;;;;;;0.50;0.50;;;23.00;35.30;;;24.10;31.47;102682.31;5053611;28;20186;-49
2022/05/08 04:50:22;;;;;;;0.50;0.50;;;23.00;35.30;;;24.10;31.76;102676.94;5049267;28;20213;-48
2022/05/08 04:52:49;;;;;;;0.50;0.50;;;23.00;35.30;;;24.10;31.43;102672.34;5043877;28;20200;-49
2022/05/08 04:55:16;;;;;;;0.47;0.47;;;23.00;35.40;;;24.10;31.67;102682.31;5052117;28;20217;-49
2022/05/08 04:57:44;;;;;;;0.50;0.50;;;23.00;35.40;;;24.09;31.66;102681.47;5052389;28;20317;-49
2022/05/08 05:00:15;;;;;;;0.30;0.30;;;23.00;35.30;;;24.10;31.57;102693.88;5053228;28;20190;-49
2022/05/08 05:02:44;;;;;;;0.40;0.40;;;23.00;35.30;;;24.09;31.24;102689.56;5052954;28;20193;-50
2022/05/08 05:05:11;;;;;;;0.60;0.60;;;23.00;35.20;;;24.11;31.29;102692.84;5051839;28;20193;-49
2022/05/08 05:07:40;;;;;;;0.50;0.50;;;23.00;35.20;;;24.11;31.30;102694.72;5049956;28;20186;-51
2022/05/08 05:10:10;;;;;;;0.53;0.53;;;23.00;35.10;;;24.11;31.58;102694.72;5032953;28;20197;-51
2022/05/08 05:12:38;;;;;;;0.43;0.43;;;22.90;35.10;;;24.10;31.09;102704.66;5033788;28;20205;-50
2022/05/08 05:15:08;;;;;;;0.57;0.57;;;23.00;35.10;;;24.10;31.21;102699.25;5036201;28;20213;-50
2022/05/08 05:17:37;;;;;;;0.50;0.50;;;23.00;35.10;;;24.10;31.50;102698.47;5049017;28;20217;-49
2022/05/08 05:20:06;;;;;;;0.57;0.57;;;23.00;35.10;;;24.08;31.66;102706.72;5057237;28;20218;-50
2022/05/08 05:22:33;;;;;;;0.47;0.47;;;23.00;35.70;;;24.09;31.29;102708.41;5051394;28;20201;-52
2022/05/08 05:25:02;;;;;;;0.50;0.50;;;23.00;35.00;;;24.10;31.15;102714.63;5042343;28;20594;-52
2022/05/08 05:27:29;;;;;;;0.57;0.50;;;23.00;35.00;;;24.10;31.24;102712.72;5056441;28;20197;-52
2022/05/08 05:29:57;;;;;;;0.57;0.57;;;23.00;35.00;;;24.10;31.18;102718.09;5037714;28;20530;-51
2022/05/08 05:32:26;;;;;;;0.50;0.50;;;23.00;35.00;;;24.10;31.16;102718.09;5036960;28;20214;-50
2022/05/08 05:34:55;;;;;;;0.50;0.50;;;23.00;35.00;;;24.09;31.16;102724.56;5036767;28;20190;-50
2022/05/08 05:37:22;;;;;;;0.57;0.57;;;23.00;35.00;;;24.07;31.40;102718.56;5036683;28;20212;-50
2022/05/08 05:39:49;;;;;;;0.40;0.40;;;23.00;35.00;;;24.08;31.44;102728.25;5038850;28;20191;-49
2022/05/08 05:42:17;;;;;;;0.50;0.50;;;23.00;34.90;;;24.11;31.40;102727.00;5047320;28;20202;-52
2022/05/08 05:44:44;;;;;;;0.40;0.40;;;23.00;34.90;;;24.09;31.18;102727.25;5055664;28;20194;-50
2022/05/08 05:49:59;;;;;;;0.50;0.50;;;23.00;35.00;;;24.09;30.92;102724.56;5056755;28;20201;-50
2022/05/08 05:52:27;;;;;;;0.47;0.47;;;23.00;34.90;;;24.09;31.39;102729.94;5047505;28;20203;-48
2022/05/08 05:54:55;;;;;;;0.50;0.50;;;23.00;34.90;;;24.09;31.01;102735.31;5045902;28;20194;-49
2022/05/08 05:57:22;;;;;;;0.50;0.50;;;23.00;34.90;;;24.09;31.39;102732.63;5041993;28;20194;-49
2022/05/08 05:59:49;;;;;;;0.50;0.50;;;23.00;34.90;;;24.11;31.19;102740.47;5036388;28;20190;-49
2022/05/08 06:02:16;;;;;;;0.50;0.50;;;23.00;34.90;;;24.10;31.35;102738.84;5047539;28;20194;-48
2022/05/08 06:04:44;;;;;;;1.50;0.60;;;23.00;34.90;;;24.10;31.02;102736.94;5055889;28;20189;-49
2022/05/08 06:07:12;;;;;;;0.50;0.50;;;23.00;34.90;;;24.10;31.03;102736.16;5056124;28;20210;-50
2022/05/08 06:09:40;;;;;;;0.57;0.57;;;23.00;34.90;;;24.11;31.35;102744.00;5036964;28;20198;-48
2022/05/08 06:12:08;;;;;;;0.50;0.50;;;23.00;34.90;;;24.11;31.03;102744.00;5037066;28;20209;-49
2022/05/08 06:14:35;;;;;;;0.40;0.40;;;23.00;34.80;;;24.10;30.97;102742.31;5050922;28;20194;-50
2022/05/08 06:17:03;;;;;;;0.40;0.40;;;23.00;34.80;;;24.10;30.97;102741.53;5054652;28;20674;-50
2022/05/08 06:19:31;;;;;;;0.60;0.60;;;23.00;34.80;;;24.11;31.21;102753.94;5055874;28;20228;-51
2022/05/08 06:21:59;;;;;;;0.40;0.40;;;23.00;34.70;;;24.10;31.09;102744.22;5055738;28;20194;-49
2022/05/08 06:24:28;;;;;;;0.50;0.50;;;23.00;34.70;;;24.12;31.03;102750.22;5053838;28;20208;-50
2022/05/08 06:26:55;;;;;;;0.50;0.50;;;23.00;34.70;;;24.11;31.09;102743.16;5054459;28;20218;-50
2022/05/08 06:29:23;;;;;;;0.50;0.50;;;23.00;34.70;;;24.11;31.18;102749.38;5055239;28;20193;-50
2022/05/08 06:31:51;;;;;;;0.40;0.40;;;23.00;34.60;;;24.10;31.09;102763.84;5053632;28;20581;-49
2022/05/08 06:34:18;;;;;;;0.40;0.40;;;23.00;34.60;;;24.11;30.97;102754.75;5054136;28;20218;-51
2022/05/08 06:36:46;;;;;;;0.40;0.40;;;23.00;34.60;;;24.12;30.78;102759.13;5055419;28;20218;-49
2022/05/08 06:39:13;;;;;;;0.50;0.50;;;23.00;34.60;;;24.12;31.23;102761.81;5055431;28;20240;-50
2022/05/08 06:41:42;;;;;;;0.57;0.57;;;23.00;34.60;;;24.12;30.63;102767.19;5055004;28;20198;-50
2022/05/08 06:44:09;;;;;;;0.40;0.40;;;23.00;34.50;;;24.11;31.03;102760.16;5054943;28;20193;-50
2022/05/08 06:46:36;;;;;;;0.40;0.40;;;23.00;34.50;;;24.10;30.77;102771.94;5052865;28;20214;-51
2022/05/08 06:49:05;;;;;;;0.40;0.40;;;23.00;34.50;;;24.12;30.99;102771.75;5055567;28;20186;-50
2022/05/08 06:51:34;;;;;;;0.40;0.40;;;23.00;34.50;;;24.11;31.08;102768.22;5053221;28;20217;-51
2022/05/08 06:54:01;;;;;;;0.60;0.50;;;23.00;34.50;;;24.10;31.04;102763.84;5055290;28;20193;-49
2022/05/08 06:56:31;;;;;;;0.50;0.50;;;23.00;34.50;;;24.12;30.96;102767.19;5049003;28;20683;-49
2022/05/08 07:01:45;;;;;;;0.40;0.40;;;23.00;34.40;;;24.12;30.81;102772.56;5052557;28;20205;-50
2022/05/08 07:04:13;;;;;;;0.50;0.50;;;23.00;34.40;;;24.13;30.79;102778.75;5052931;28;20277;-50
2022/05/08 07:06:40;;;;;;;0.60;0.60;;;23.00;34.40;;;24.13;31.09;102782.28;5054379;28;20218;-50
2022/05/08 07:09:15;;;;;;;0.40;0.40;;;23.00;34.40;;;24.13;30.49;102779.59;5035369;28;20241;-49
2022/05/08 07:11:47;;;;;;;0.40;0.40;;;23.00;34.40;;;24.12;30.48;102777.97;5034815;28;20201;-51
2022/05/08 07:14:16;;;;;;;0.50;0.50;;;23.00;34.30;;;24.11;30.89;102786.22;5036020;28;20278;-50
2022/05/08 07:16:44;;;;;;;0.47;0.47;;;23.00;34.30;;;24.11;31.00;102778.97;5037769;28;20285;-49
2022/05/08 07:19:12;;;;;;;0.40;0.40;;;23.00;34.30;;;24.12;31.08;102777.97;5034717;28;20218;-49
2022/05/08 07:21:39;;;;;;;0.50;0.50;;;23.00;34.30;;;24.14;30.87;102775.03;5035733;28;20212;-49
2022/05/08 07:24:08;;;;;;;0.57;0.57;;;23.00;34.30;;;24.14;30.53;102773.19;5035815;28;20200;-51
2022/05/08 07:26:36;;;;;;;0.50;0.50;;;23.00;34.30;;;24.12;30.54;102783.34;5034031;28;20215;-50
2022/05/08 07:29:07;;;;;;;0.57;0.50;;;23.00;34.30;;;24.14;30.65;102781.25;5044880;28;20186;-49
2022/05/08 07:31:35;;;;;;;0.50;0.50;;;23.00;34.20;;;24.13;30.80;102784.97;5054483;28;20189;-49
2022/05/08 07:36:49;;;;;;;0.40;0.40;;;23.00;34.20;;;24.13;30.87;102789.53;5052972;28;20217;-49
2022/05/08 07:39:16;;;;;;;0.50;0.50;;;23.00;34.20;;;24.14;30.67;102783.13;5048313;28;20225;-49
2022/05/08 07:41:43;;;;;;;0.50;0.50;;;23.00;34.20;;;24.13;30.60;102784.97;5040623;28;20209;-49
2022/05/08 07:44:10;;;;;;;0.30;0.30;;;23.00;34.20;;;24.12;30.32;102783.34;5039917;28;20277;-50
2022/05/08 07:46:39;;;;;;;0.60;0.60;;;23.00;34.10;;;24.15;30.40;102782.88;5053102;28;20283;-50
2022/05/08 07:49:08;;;;;;;0.60;0.60;;;23.00;34.10;;;24.16;30.66;102779.16;5054230;28;20212;-51
2022/05/08 07:51:36;;;;;;;0.50;0.50;;;23.00;34.10;;;24.16;30.73;102784.56;5035021;28;20195;-49
2022/05/08 07:54:03;;;;;;;0.50;0.50;;;23.00;34.10;;;24.16;30.57;102784.56;5043492;28;20202;-49
2022/05/08 07:56:30;;;;;;;0.50;0.50;;;23.00;34.10;;;24.16;30.49;102784.56;5049073;28;20213;-49
2022/05/08 07:58:58;;;;;;;0.50;0.50;;;23.00;34.10;;;24.16;30.37;102797.19;5053391;28;20209;-49
2022/05/08 08:01:25;;;;;;;0.60;0.60;;;23.00;34.10;;;24.16;30.46;102795.31;5052158;28;20194;-49
2022/05/08 08:04:13;;;;;;;0.40;0.40;;;23.00;34.10;;;24.16;30.80;102791.78;5054258;28;20189;-51
2022/05/08 08:06:41;;;;;;;0.60;0.60;;;23.00;34.10;;;24.14;30.93;102793.88;5044758;28;20221;-50
2022/05/08 08:09:10;;;;;;;0.77;0.53;;;23.00;34.10;;;24.15;30.70;102804.41;5033291;28;20186;-51
2022/05/08 08:11:41;;;;;;;0.40;0.40;;;23.00;34.10;;;24.14;30.43;102797.41;5034910;28;20244;-51
2022/05/08 08:14:08;;;;;;;0.50;0.50;;;23.00;34.10;;;24.15;30.38;102801.72;5034706;28;20545;-49
2022/05/08 08:16:56;;;;;;;0.43;0.43;;;23.00;34.00;;;24.13;30.43;102801.13;5039181;28;20221;-51
2022/05/08 08:19:25;;;;;;;0.50;0.50;;;23.00;34.00;;;24.13;30.71;102795.75;5053764;28;20248;-50
2022/05/08 08:21:52;;;;;;;0.40;0.40;;;23.00;34.00;;;24.17;30.62;102801.53;5053534;28;20201;-50
2022/05/08 08:24:19;;;;;;;0.57;0.57;;;23.00;34.60;;;24.17;30.63;102799.69;5034704;28;20201;-51
2022/05/08 08:26:46;;;;;;;0.60;0.60;;;23.00;33.90;;;24.15;30.38;102799.03;5033218;28;20213;-50
2022/05/08 08:29:14;;;;;;;0.57;0.57;;;23.00;33.90;;;24.16;30.46;102806.09;5034702;28;20214;-51
2022/05/08 08:31:41;;;;;;;0.50;0.50;;;23.00;33.90;;;24.16;30.71;102811.47;5034897;28;20199;-49
2022/05/08 08:34:08;;;;;;;0.40;0.40;;;23.00;34.00;;;24.16;30.55;102806.09;5052843;28;20217;-49
2022/05/08 08:36:37;;;;;;;0.43;0.43;;;23.00;33.90;;;24.16;30.42;102806.09;5053118;28;20240;-49
2022/05/08 08:39:04;;;;;;;0.40;0.40;;;23.00;33.90;;;24.17;30.11;102796.16;5051644;28;20213;-51
2022/05/08 08:41:36;;;;;;;0.40;0.40;;;23.00;33.90;;;24.16;30.53;102806.09;5053617;28;20658;-50
2022/05/08 08:49:47;;;;;;;0.43;0.43;;;23.00;34.40;;;24.16;30.60;102803.41;5037292;28;20597;-51
2022/05/08 08:52:18;;;;;;;0.40;0.40;;;23.00;33.70;;;24.17;30.44;102794.28;5037496;28;20198;-51
2022/05/08 08:54:46;;;;;;;0.60;0.60;;;23.00;33.70;;;24.18;30.30;102797.78;5046240;28;20197;-50
2022/05/08 08:57:13;;;;;;;0.60;0.60;;;23.00;33.70;;;24.19;30.20;102797.59;5038762;28;20587;-49
2022/05/08 08:59:40;;;;;;;0.60;0.60;;;23.00;33.60;;;24.21;30.32;102792.81;5037541;28;20206;-50
2022/05/08 09:02:16;;;;;;;0.70;0.70;;;23.00;33.60;;;24.18;30.07;102798.63;5037282;28;20194;-51
2022/05/08 09:04:45;;;;;;;0.60;0.60;;;23.00;33.60;;;24.21;30.28;102798.19;5040437;28;20225;-52
2022/05/08 09:07:41;;;;;;;0.60;0.60;;;23.00;33.60;;;24.16;30.34;102800.69;5057184;28;20213;-50
2022/05/08 09:10:15;;;;;;;0.60;0.60;;;23.00;33.60;;;24.19;30.12;102800.28;5056583;28;20195;-50
2022/05/08 09:12:45;;;;;;;0.50;0.50;;;23.00;33.60;;;24.21;29.97;102800.91;5048191;28;20692;-49
2022/05/08 09:15:22;;;;;;;0.57;0.57;;;23.00;33.60;;;24.20;30.26;102799.22;5056588;28;20545;-51
2022/05/08 09:17:52;;;;;;;0.50;0.50;;;23.00;33.60;;;24.22;29.99;102794.44;5056953;28;20276;-50
2022/05/08 09:20:35;;;;;;;0.40;0.40;;;23.00;33.50;;;24.20;30.21;102801.91;5053022;28;20214;-49
2022/05/08 09:23:11;;;;;;;0.50;0.50;;;23.00;33.50;;;24.22;30.27;102807.91;5056868;28;20190;-51
2022/05/08 09:25:54;;;;;;;0.50;0.50;;;23.00;33.50;;;24.21;30.37;102800.06;5056283;28;20327;-50
2022/05/08 09:28:40;;;;;;;0.40;0.40;;;23.00;33.50;;;24.26;29.77;102802.09;5055135;28;20217;-51
2022/05/08 09:31:10;;;;;;;0.50;0.50;;;23.10;33.50;;;24.27;30.07;102801.06;5056700;28;20205;-50
2022/05/08 09:33:40;;;;;;;0.30;0.30;;;23.10;33.50;;;24.27;30.20;102801.06;5056710;28;20701;-49
2022/05/08 09:36:09;;;;;;;0.40;0.40;;;23.10;33.50;;;24.28;29.84;102797.34;5045960;28;20238;-51
2022/05/08 09:38:43;;;;;;;0.40;0.40;;;23.10;33.50;;;24.27;30.01;102796.50;5039560;28;20194;-49
2022/05/08 09:41:12;;;;;;;0.50;0.50;;;23.00;33.30;;;24.30;30.10;102800.63;5056523;28;20204;-50
2022/05/08 09:43:40;;;;;;;0.50;0.50;;;23.00;33.30;;;24.32;29.96;102801.25;5056353;28;20670;-49
2022/05/08 09:46:09;;;;;;;0.50;0.50;;;23.10;33.50;;;24.33;30.25;102794.81;5041361;28;20226;-49
2022/05/08 09:48:37;;;;;;;0.60;0.60;;;23.10;33.40;;;24.32;30.12;102787.81;5036439;28;20182;-50
2022/05/08 09:51:07;;;;;;;0.50;0.50;;;23.10;33.40;;;24.36;29.85;102791.72;5036406;28;20198;-50
2022/05/08 09:53:37;;;;;;;0.50;0.50;;;23.10;33.30;;;24.37;29.60;102796.03;5051839;28;20658;-50
2022/05/08 09:56:08;;;;;;;0.43;0.43;;;23.10;33.30;;;24.36;29.88;102783.63;5056095;28;20225;-49
2022/05/08 09:58:36;;;;;;;0.40;0.40;;;23.10;33.20;;;24.36;29.70;102789.00;5053438;28;20688;-50
2022/05/08 10:01:04;;;;;;;0.43;0.43;;;23.10;33.20;;;24.37;29.61;102790.66;5054467;28;20274;-51
2022/05/08 10:03:31;;;;;;;0.50;0.50;;;23.10;33.10;;;24.38;29.43;102786.94;5055613;28;20201;-50
2022/05/08 10:06:00;;;;;;;0.50;0.50;;;23.10;33.10;;;24.39;29.64;102780.50;5049841;28;20218;-49
2022/05/08 10:08:33;;;;;;;0.50;0.50;;;23.10;33.10;;;24.40;30.00;102779.44;5039440;28;20187;-51
2022/05/08 10:13:53;;;;;;;0.50;0.50;;;23.10;33.00;;;24.41;29.59;102781.13;5055986;28;20568;-50
2022/05/08 10:16:52;;;;;;;0.50;0.50;;;23.10;33.00;;;24.36;29.84;102789.00;5055104;28;20210;-49
2022/05/08 10:19:52;;;;;;;0.80;0.80;;;23.10;32.90;;;24.35;29.67;102774.72;4981773;28;20213;-49
2022/05/08 10:22:20;;;;;;;0.50;0.50;;;23.20;33.00;;;24.41;29.76;102783.81;5035662;28;20205;-49
2022/05/08 10:25:09;;;;;;;0.60;0.60;;;23.20;33.00;;;24.41;29.50;102781.13;5038049;28;20191;-50
2022/05/08 10:27:38;;;;;;;0.50;0.50;;;23.20;33.60;;;24.40;29.75;102782.16;5053816;28;20669;-51
2022/05/08 10:30:29;;;;;;;0.60;0.60;;;23.20;32.90;;;24.38;29.75;102787.75;5037662;28;20199;-50
2022/05/08 10:32:58;;;;;;;0.50;0.50;;;23.20;32.70;;;24.45;29.43;102783.16;5035628;28;20200;-49
2022/05/08 10:35:28;;;;;;;0.50;0.50;;;23.20;32.80;;;24.46;29.48;102781.31;5037683;28;20397;-50
2022/05/08 10:38:24;;;;;;;0.40;0.40;;;23.20;32.80;;;24.42;29.19;102771.97;5035569;28;20658;-49
2022/05/08 10:40:55;;;;;;;0.50;0.50;;;23.20;32.60;;;24.47;28.91;102774.84;5036643;28;20215;-49
2022/05/08 10:43:29;;;;;;;0.40;0.40;;;23.20;32.60;;;24.46;28.93;102775.91;5047035;28;20194;-49
2022/05/08 10:46:21;;;;;;;0.60;0.60;;;23.20;32.60;;;24.44;29.48;102775.31;5035946;28;20517;-50
2022/05/08 10:48:49;;;;;;;0.60;0.60;;;23.20;32.80;;;24.48;29.09;102768.44;5035645;28;20663;-51
2022/05/08 10:51:16;;;;;;;0.50;0.50;;;23.20;32.60;;;24.51;29.22;102765.31;5035622;28;20660;-50
2022/05/08 10:53:47;;;;;;;0.50;0.50;;;23.20;32.50;;;24.52;29.36;102761.56;5036462;28;20182;-51